createdAt,value
2019-05-12T00:00:22.893Z,0
2019-05-12T00:01:33.510Z,0
2019-05-12T00:02:44.580Z,0
2019-05-12T00:03:57.968Z,0
2019-05-12T00:05:08.701Z,0
2019-05-12T00:06:19.912Z,0
2019-05-12T00:07:31.029Z,0
2019-05-12T00:08:42.972Z,0
2019-05-12T00:09:55.150Z,0
2019-05-12T00:11:05.538Z,0
2019-05-12T00:12:18.381Z,0
2019-05-12T00:13:30.393Z,0
2019-05-12T00:14:40.588Z,0
2019-05-12T00:15:52.414Z,0
2019-05-12T00:17:02.936Z,0
2019-05-12T00:18:13.820Z,0
2019-05-12T00:19:25.496Z,0
2019-05-12T00:20:38.466Z,0
2019-05-12T00:21:50.543Z,0
2019-05-12T00:23:02.888Z,0
2019-05-12T00:24:32.845Z,0
2019-05-12T00:25:43.620Z,0
2019-05-12T00:26:55.333Z,0
2019-05-12T00:28:07.815Z,0
2019-05-12T00:29:18.549Z,0
2019-05-12T00:30:30.107Z,0
2019-05-12T00:31:40.732Z,0
2019-05-12T00:32:52.642Z,0
2019-05-12T00:34:03.311Z,0
2019-05-12T00:35:15.421Z,0
2019-05-12T00:36:25.885Z,0
2019-05-12T00:37:38.083Z,0
2019-05-12T00:38:48.511Z,0
2019-05-12T00:40:00.625Z,0
2019-05-12T00:41:11.254Z,0
2019-05-12T00:42:23.154Z,0
2019-05-12T00:43:35.225Z,0
2019-05-12T00:44:47.846Z,0
2019-05-12T00:45:58.635Z,0
2019-05-12T00:47:10.616Z,0
2019-05-12T00:48:22.547Z,0
2019-05-12T00:49:33.788Z,0
2019-05-12T00:50:45.801Z,0
2019-05-12T00:51:55.843Z,0
2019-05-12T00:53:08.575Z,0
2019-05-12T00:54:20.310Z,0
2019-05-12T00:55:31.405Z,0
2019-05-12T00:56:43.817Z,0
2019-05-12T00:57:57.869Z,0
2019-05-12T00:59:08.403Z,0
2019-05-12T01:00:20.352Z,0
2019-05-12T01:01:31.051Z,0
2019-05-12T01:02:42.893Z,0
2019-05-12T01:03:53.233Z,0
2019-05-12T01:05:05.259Z,0
2019-05-12T01:06:17.783Z,0
2019-05-12T01:07:30.134Z,0
2019-05-12T01:08:40.827Z,0
2019-05-12T01:09:51.560Z,0
2019-05-12T01:11:02.961Z,0
2019-05-12T01:12:15.026Z,0
2019-05-12T01:13:27.906Z,0
2019-05-12T01:14:38.334Z,0
2019-05-12T01:15:50.511Z,0
2019-05-12T01:17:02.576Z,0
2019-05-12T01:18:14.133Z,0
2019-05-12T01:19:25.905Z,0
2019-05-12T01:20:38.735Z,0
2019-05-12T01:21:50.617Z,0
2019-05-12T01:23:02.631Z,0
2019-05-12T01:24:13.752Z,0
2019-05-12T01:25:28.711Z,0
2019-05-12T01:26:41.114Z,0
2019-05-12T01:27:53.060Z,0
2019-05-12T01:29:05.162Z,0
2019-05-12T01:30:18.030Z,0
2019-05-12T01:31:28.556Z,0
2019-05-12T01:32:40.577Z,0
2019-05-12T01:33:51.033Z,0
2019-05-12T01:35:02.566Z,0
2019-05-12T01:36:15.076Z,0
2019-05-12T01:37:27.779Z,0
2019-05-12T01:38:40.296Z,0
2019-05-12T01:39:51.555Z,0
2019-05-12T01:41:03.249Z,0
2019-05-12T01:42:13.928Z,0
2019-05-12T01:43:30.198Z,0
2019-05-12T01:44:40.642Z,0
2019-05-12T01:45:53.078Z,0
2019-05-12T01:47:04.979Z,0
2019-05-12T01:48:18.305Z,0
2019-05-12T01:49:28.947Z,0
2019-05-12T01:50:41.075Z,0
2019-05-12T01:51:52.223Z,0
2019-05-12T01:53:03.748Z,0
2019-05-12T01:54:23.695Z,0
2019-05-12T01:55:35.590Z,0
2019-05-12T01:56:48.267Z,0
2019-05-12T01:57:59.939Z,0
2019-05-12T01:59:10.623Z,0
2019-05-12T02:00:23.001Z,0
2019-05-12T02:01:35.697Z,0
2019-05-12T02:02:48.018Z,0
2019-05-12T02:03:58.523Z,0
2019-05-12T02:05:10.771Z,0
2019-05-12T02:06:20.901Z,0
2019-05-12T02:07:32.809Z,0
2019-05-12T02:08:43.229Z,0
2019-05-12T02:09:55.455Z,0
2019-05-12T02:11:07.845Z,0
2019-05-12T02:12:18.289Z,0
2019-05-12T02:13:30.133Z,0
2019-05-12T02:14:40.673Z,0
2019-05-12T02:15:51.069Z,0
2019-05-12T02:17:02.739Z,0
2019-05-12T02:18:13.879Z,0
2019-05-12T02:19:25.419Z,0
2019-05-12T02:20:38.049Z,0
2019-05-12T02:21:48.692Z,0
2019-05-12T02:23:00.689Z,0
2019-05-12T02:24:29.818Z,0
2019-05-12T02:25:42.437Z,0
2019-05-12T02:26:53.299Z,0
2019-05-12T02:28:05.608Z,0
2019-05-12T02:29:18.266Z,0
2019-05-12T02:30:30.186Z,0
2019-05-12T02:31:42.349Z,0
2019-05-12T02:33:07.448Z,0
2019-05-12T02:34:20.717Z,0
2019-05-12T02:35:35.408Z,0
2019-05-12T02:36:47.379Z,0
2019-05-12T02:37:59.890Z,0
2019-05-12T02:39:14.811Z,0
2019-05-12T02:40:27.542Z,0
2019-05-12T02:41:39.481Z,0
2019-05-12T02:42:57.158Z,0
2019-05-12T02:44:10.137Z,0
2019-05-12T02:45:25.163Z,4
2019-05-12T02:46:39.583Z,4
2019-05-12T02:47:54.271Z,4
2019-05-12T02:49:06.943Z,4
2019-05-12T02:50:19.403Z,4
2019-05-12T02:51:35.111Z,8
2019-05-12T02:52:46.780Z,4
2019-05-12T02:53:59.408Z,8
2019-05-12T02:55:14.903Z,8
2019-05-12T02:56:28.251Z,8
2019-05-12T02:57:44.886Z,12
2019-05-12T02:58:56.795Z,16
2019-05-12T03:00:09.569Z,16
2019-05-12T03:01:26.617Z,20
2019-05-12T03:02:39.294Z,24
2019-05-12T03:03:54.684Z,24
2019-05-12T03:05:07.939Z,32
2019-05-12T03:06:19.988Z,36
2019-05-12T03:07:34.568Z,40
2019-05-12T03:08:47.360Z,48
2019-05-12T03:09:59.597Z,52
2019-05-12T03:11:14.744Z,60
2019-05-12T03:12:28.049Z,68
2019-05-12T03:13:39.432Z,72
2019-05-12T03:14:54.395Z,80
2019-05-12T03:16:07.424Z,88
2019-05-12T03:17:20.120Z,92
2019-05-12T03:18:34.698Z,104
2019-05-12T03:19:47.326Z,112
2019-05-12T03:20:59.576Z,116
2019-05-12T03:22:14.113Z,132
2019-05-12T03:23:29.601Z,140
2019-05-12T03:24:44.836Z,152
2019-05-12T03:26:15.291Z,168
2019-05-12T03:27:28.165Z,180
2019-05-12T03:28:40.470Z,196
2019-05-12T03:29:54.893Z,208
2019-05-12T03:31:10.676Z,224
2019-05-12T03:32:40.649Z,248
2019-05-12T03:34:18.424Z,272
2019-05-12T03:36:00.426Z,304
2019-05-12T03:37:30.421Z,332
2019-05-12T03:38:44.685Z,364
2019-05-12T03:39:57.007Z,388
2019-05-12T03:41:10.051Z,424
2019-05-12T03:42:25.000Z,452
2019-05-12T03:43:37.320Z,484
2019-05-12T03:44:49.162Z,520
2019-05-12T03:46:00.785Z,556
2019-05-12T03:47:14.386Z,596
2019-05-12T03:48:27.561Z,632
2019-05-12T03:49:39.655Z,676
2019-05-12T03:50:56.477Z,724
2019-05-12T03:52:09.643Z,776
2019-05-12T03:53:26.964Z,832
2019-05-12T03:54:39.541Z,888
2019-05-12T03:55:57.267Z,952
2019-05-12T03:57:09.349Z,1020
2019-05-12T03:58:25.216Z,1092
2019-05-12T03:59:37.325Z,1172
2019-05-12T04:00:49.316Z,1248
2019-05-12T04:02:04.654Z,1328
2019-05-12T04:03:17.640Z,1416
2019-05-12T04:04:29.282Z,1500
2019-05-12T04:05:45.145Z,1588
2019-05-12T04:06:56.812Z,1684
2019-05-12T04:08:09.930Z,1776
2019-05-12T04:09:24.551Z,1872
2019-05-12T04:10:37.686Z,1964
2019-05-12T04:11:48.738Z,2056
2019-05-12T04:13:04.442Z,2144
2019-05-12T04:14:17.309Z,2240
2019-05-12T04:15:30.280Z,2328
2019-05-12T04:16:45.126Z,2416
2019-05-12T04:17:56.837Z,2496
2019-05-12T04:19:09.966Z,2568
2019-05-12T04:20:25.355Z,2632
2019-05-12T04:21:37.620Z,2696
2019-05-12T04:22:49.502Z,2760
2019-05-12T04:24:04.874Z,2820
2019-05-12T04:25:16.921Z,2884
2019-05-12T04:26:29.719Z,2948
2019-05-12T04:27:47.149Z,3016
2019-05-12T04:28:59.802Z,3076
2019-05-12T04:30:14.397Z,3136
2019-05-12T04:31:27.220Z,3192
2019-05-12T04:32:40.512Z,3248
2019-05-12T04:33:54.646Z,3300
2019-05-12T04:35:06.999Z,3356
2019-05-12T04:36:19.442Z,3412
2019-05-12T04:37:34.808Z,3476
2019-05-12T04:38:47.527Z,3544
2019-05-12T04:40:00.303Z,3608
2019-05-12T04:41:19.740Z,3676
2019-05-12T04:42:34.908Z,3748
2019-05-12T04:43:47.300Z,3820
2019-05-12T04:44:59.944Z,3896
2019-05-12T04:46:14.435Z,3980
2019-05-12T04:47:27.669Z,4060
2019-05-12T04:48:40.570Z,4144
2019-05-12T04:49:54.571Z,4228
2019-05-12T04:51:07.348Z,4312
2019-05-12T04:52:20.036Z,4384
2019-05-12T04:53:35.120Z,4440
2019-05-12T04:54:47.029Z,4496
2019-05-12T04:56:27.271Z,4572
2019-05-12T04:57:39.559Z,4608
2019-05-12T04:58:54.534Z,4640
2019-05-12T05:00:07.567Z,4660
2019-05-12T05:01:20.477Z,4648
2019-05-12T05:02:36.232Z,4612
2019-05-12T05:03:49.137Z,4592
2019-05-12T05:05:05.018Z,4620
2019-05-12T05:06:17.412Z,4676
2019-05-12T05:07:28.991Z,4708
2019-05-12T05:08:44.192Z,4744
2019-05-12T05:09:57.205Z,4804
2019-05-12T05:11:08.944Z,4904
2019-05-12T05:12:23.627Z,5012
2019-05-12T05:13:39.828Z,5116
2019-05-12T05:14:54.558Z,5212
2019-05-12T05:16:07.741Z,5292
2019-05-12T05:17:19.849Z,5368
2019-05-12T05:18:34.205Z,5460
2019-05-12T05:19:46.492Z,5576
2019-05-12T05:20:56.642Z,5692
2019-05-12T05:22:06.776Z,5820
2019-05-12T05:23:18.829Z,5940
2019-05-12T05:24:30.781Z,6048
2019-05-12T05:25:43.424Z,6168
2019-05-12T05:26:53.893Z,6312
2019-05-12T05:28:06.200Z,6456
2019-05-12T05:29:18.261Z,6552
2019-05-12T05:30:29.150Z,6596
2019-05-12T05:31:41.254Z,6616
2019-05-12T05:32:53.543Z,6608
2019-05-12T05:34:04.657Z,6636
2019-05-12T05:35:16.194Z,6676
2019-05-12T05:36:27.621Z,6664
2019-05-12T05:37:46.721Z,6652
2019-05-12T05:39:06.742Z,6644
2019-05-12T05:40:25.808Z,6604
2019-05-12T05:41:50.805Z,6540
2019-05-12T05:43:18.145Z,6460
2019-05-12T05:44:34.546Z,6424
2019-05-12T05:45:48.644Z,6444
2019-05-12T05:47:13.664Z,6504
2019-05-12T05:48:31.967Z,6572
2019-05-12T05:49:43.393Z,6636
2019-05-12T05:50:54.008Z,6728
2019-05-12T05:52:08.403Z,6852
2019-05-12T05:53:26.734Z,6976
2019-05-12T05:54:46.438Z,7108
2019-05-12T05:56:04.014Z,7284
2019-05-12T05:57:19.927Z,7496
2019-05-12T05:58:40.103Z,7728
2019-05-12T05:59:58.625Z,7920
2019-05-12T06:01:16.041Z,8048
2019-05-12T06:02:46.609Z,8176
2019-05-12T06:04:04.177Z,8328
2019-05-12T06:05:26.102Z,8504
2019-05-12T06:06:55.289Z,8676
2019-05-12T06:08:09.385Z,8808
2019-05-12T06:09:28.074Z,8932
2019-05-12T06:10:45.954Z,9016
2019-05-12T06:11:58.953Z,9056
2019-05-12T06:13:21.057Z,9044
2019-05-12T06:14:40.814Z,8980
2019-05-12T06:15:58.411Z,8904
2019-05-12T06:17:09.138Z,8836
2019-05-12T06:18:20.764Z,8840
2019-05-12T06:19:34.207Z,8924
2019-05-12T06:20:45.920Z,9052
2019-05-12T06:21:58.150Z,9208
2019-05-12T06:23:09.282Z,9352
2019-05-12T06:24:26.347Z,9444
2019-05-12T06:25:57.378Z,9444
2019-05-12T06:27:24.258Z,9388
2019-05-12T06:28:46.460Z,9428
2019-05-12T06:30:10.662Z,9488
2019-05-12T06:31:35.752Z,9452
2019-05-12T06:32:57.079Z,9428
2019-05-12T06:34:23.809Z,9304
2019-05-12T06:35:45.345Z,9292
2019-05-12T06:37:02.950Z,9180
2019-05-12T06:38:20.771Z,8952
2019-05-12T06:39:31.303Z,8948
2019-05-12T06:40:50.302Z,8808
2019-05-12T06:42:19.437Z,9036
2019-05-12T06:43:45.364Z,8840
2019-05-12T06:45:03.660Z,8912
2019-05-12T06:46:25.820Z,8948
2019-05-12T06:47:39.231Z,8824
2019-05-12T06:49:00.298Z,8552
2019-05-12T06:50:23.698Z,8076
2019-05-12T06:51:38.675Z,8056
2019-05-12T06:52:55.526Z,8268
2019-05-12T06:54:17.570Z,8216
2019-05-12T06:55:34.164Z,8076
2019-05-12T06:56:56.042Z,8108
2019-05-12T06:58:39.011Z,8412
2019-05-12T06:59:59.882Z,8228
2019-05-12T07:01:26.538Z,8428
2019-05-12T07:02:55.310Z,8588
2019-05-12T07:04:14.115Z,8520
2019-05-12T07:05:27.954Z,8600
2019-05-12T07:06:49.740Z,8632
2019-05-12T07:08:06.533Z,8560
2019-05-12T07:09:50.035Z,8528
2019-05-12T07:11:11.045Z,8296
2019-05-12T07:12:39.737Z,8260
2019-05-12T07:14:27.457Z,8256
2019-05-12T07:15:46.368Z,8244
2019-05-12T07:17:09.994Z,8392
2019-05-12T07:18:39.409Z,8264
2019-05-12T07:19:59.261Z,8168
2019-05-12T07:21:27.352Z,8212
2019-05-12T07:22:51.081Z,8532
2019-05-12T07:24:11.619Z,8652
2019-05-12T07:25:30.940Z,8572
2019-05-12T07:26:48.097Z,8368
2019-05-12T07:28:16.655Z,8408
2019-05-12T07:29:28.633Z,8372
2019-05-12T07:30:43.867Z,8296
2019-05-12T07:31:56.174Z,8272
2019-05-12T07:33:09.443Z,8124
2019-05-12T07:34:23.891Z,8632
2019-05-12T07:35:36.361Z,8360
2019-05-12T07:36:46.751Z,8396
2019-05-12T07:37:58.780Z,8228
2019-05-12T07:39:15.921Z,8160
2019-05-12T07:40:39.851Z,8060
2019-05-12T07:41:59.823Z,7828
2019-05-12T07:43:24.241Z,7828
2019-05-12T07:44:48.354Z,7620
2019-05-12T07:46:13.340Z,7796
2019-05-12T07:47:33.095Z,7684
2019-05-12T07:48:56.552Z,7592
2019-05-12T07:50:16.015Z,7552
2019-05-12T07:51:41.168Z,7532
2019-05-12T07:52:54.254Z,7492
2019-05-12T07:54:08.737Z,7504
2019-05-12T07:55:19.666Z,7488
2019-05-12T07:56:44.125Z,7468
2019-05-12T07:58:23.909Z,7436
2019-05-12T07:59:46.247Z,7512
2019-05-12T08:01:14.367Z,7692
2019-05-12T08:02:38.158Z,7800
2019-05-12T08:03:50.888Z,7900
2019-05-12T08:05:19.379Z,7980
2019-05-12T08:06:46.622Z,8076
2019-05-12T08:08:06.884Z,8188
2019-05-12T08:09:36.286Z,8188
2019-05-12T08:10:51.292Z,8304
2019-05-12T08:12:09.510Z,8396
2019-05-12T08:13:31.036Z,8548
2019-05-12T08:14:46.399Z,8624
2019-05-12T08:16:00.987Z,8780
2019-05-12T08:17:24.669Z,9004
2019-05-12T08:18:46.935Z,9212
2019-05-12T08:19:58.523Z,9384
2019-05-12T08:21:10.410Z,9436
2019-05-12T08:22:34.514Z,9648
2019-05-12T08:23:46.969Z,9844
2019-05-12T08:24:58.607Z,9972
2019-05-12T08:26:23.865Z,9800
2019-05-12T08:27:39.037Z,9808
2019-05-12T08:28:56.033Z,10076
2019-05-12T08:30:10.778Z,10280
2019-05-12T08:31:38.584Z,10768
2019-05-12T08:32:54.429Z,10700
2019-05-12T08:34:18.244Z,10800
2019-05-12T08:35:43.785Z,10824
2019-05-12T08:37:04.284Z,11068
2019-05-12T08:38:16.835Z,11296
2019-05-12T08:39:30.591Z,11720
2019-05-12T08:40:54.000Z,11856
2019-05-12T08:42:06.447Z,12076
2019-05-12T08:43:19.782Z,12136
2019-05-12T08:44:46.149Z,12396
2019-05-12T08:46:06.823Z,12576
2019-05-12T08:47:23.807Z,12776
2019-05-12T08:48:38.783Z,12900
2019-05-12T08:50:04.765Z,13148
2019-05-12T08:51:27.459Z,14060
2019-05-12T08:52:46.741Z,14256
2019-05-12T08:54:14.169Z,14248
2019-05-12T08:55:38.321Z,13972
2019-05-12T08:56:56.927Z,12940
2019-05-12T08:58:26.365Z,13936
2019-05-12T09:00:13.270Z,14440
2019-05-12T09:01:36.628Z,14632
2019-05-12T09:02:53.895Z,14708
2019-05-12T09:04:20.315Z,14924
2019-05-12T09:05:44.482Z,14740
2019-05-12T09:07:04.342Z,15232
2019-05-12T09:08:16.299Z,15544
2019-05-12T09:09:28.075Z,15064
2019-05-12T09:10:38.935Z,15160
2019-05-12T09:11:51.162Z,15328
2019-05-12T09:13:03.942Z,14740
2019-05-12T09:14:16.943Z,14260
2019-05-12T09:15:28.776Z,14292
2019-05-12T09:16:40.109Z,14196
2019-05-12T09:18:04.639Z,14240
2019-05-12T09:19:29.677Z,13516
2019-05-12T09:20:55.664Z,14480
2019-05-12T09:22:24.097Z,14372
2019-05-12T09:23:47.919Z,13952
2019-05-12T09:25:11.564Z,14172
2019-05-12T09:26:34.169Z,14204
2019-05-12T09:27:54.207Z,13996
2019-05-12T09:29:07.465Z,14148
2019-05-12T09:30:18.799Z,14216
2019-05-12T09:31:36.161Z,14064
2019-05-12T09:32:58.463Z,14380
2019-05-12T09:34:23.363Z,14596
2019-05-12T09:35:43.717Z,14888
2019-05-12T09:37:06.492Z,15552
2019-05-12T09:38:28.693Z,15776
2019-05-12T09:39:56.054Z,16096
2019-05-12T09:41:10.219Z,16032
2019-05-12T09:42:33.380Z,16512
2019-05-12T09:43:55.825Z,16896
2019-05-12T09:45:16.025Z,17120
2019-05-12T09:46:34.046Z,17344
2019-05-12T09:47:48.436Z,17440
2019-05-12T09:49:03.994Z,17760
2019-05-12T09:50:25.769Z,17888
2019-05-12T09:51:50.768Z,17952
2019-05-12T09:53:14.138Z,17888
2019-05-12T09:54:40.566Z,17536
2019-05-12T09:55:53.865Z,17280
2019-05-12T09:57:09.159Z,17408
2019-05-12T09:58:33.675Z,16800
2019-05-12T09:59:59.359Z,17152
2019-05-12T10:01:13.905Z,16736
2019-05-12T10:02:28.381Z,16256
2019-05-12T10:03:48.493Z,16640
2019-05-12T10:05:06.155Z,16864
2019-05-12T10:06:24.645Z,17088
2019-05-12T10:07:36.400Z,17120
2019-05-12T10:08:48.119Z,17376
2019-05-12T10:10:06.150Z,17728
2019-05-12T10:11:23.661Z,18432
2019-05-12T10:12:53.526Z,18848
2019-05-12T10:14:13.948Z,19424
2019-05-12T10:15:33.115Z,20640
2019-05-12T10:16:52.733Z,16204
2019-05-12T10:18:16.611Z,22304
2019-05-12T10:19:28.405Z,24064
2019-05-12T10:20:46.579Z,23616
2019-05-12T10:22:05.081Z,23264
2019-05-12T10:23:29.794Z,25408
2019-05-12T10:25:04.001Z,26272
2019-05-12T10:26:19.668Z,25696
2019-05-12T10:27:39.394Z,25280
2019-05-12T10:29:20.709Z,26528
2019-05-12T10:30:34.076Z,27648
2019-05-12T10:31:49.250Z,28704
2019-05-12T10:33:03.432Z,30240
2019-05-12T10:34:14.016Z,28384
2019-05-12T10:35:31.506Z,28032
2019-05-12T10:36:53.690Z,30496
2019-05-12T10:38:16.014Z,31520
2019-05-12T10:39:26.908Z,30688
2019-05-12T10:40:38.694Z,33152
2019-05-12T10:41:50.939Z,32672
2019-05-12T10:43:04.404Z,32256
2019-05-12T10:44:16.360Z,33824
2019-05-12T10:45:28.386Z,35264
2019-05-12T10:46:38.118Z,35712
2019-05-12T10:47:50.201Z,35552
2019-05-12T10:49:00.926Z,35808
2019-05-12T10:50:11.368Z,37216
2019-05-12T10:51:23.701Z,38176
2019-05-12T10:52:43.982Z,38304
2019-05-12T10:54:15.637Z,39104
2019-05-12T10:55:26.121Z,39488
2019-05-12T10:56:37.358Z,40544
2019-05-12T10:57:52.771Z,42304
2019-05-12T10:59:28.098Z,43296
2019-05-12T11:00:41.376Z,39648
2019-05-12T11:01:56.535Z,37824
2019-05-12T11:03:17.942Z,40800
2019-05-12T11:04:46.456Z,39392
2019-05-12T11:06:12.450Z,43072
2019-05-12T11:07:27.934Z,45696
2019-05-12T11:08:47.171Z,43360
2019-05-12T11:10:19.052Z,41440
2019-05-12T11:11:41.942Z,46432
2019-05-12T11:12:59.060Z,45920
2019-05-12T11:14:20.169Z,40320
2019-05-12T11:15:39.403Z,37600
2019-05-12T11:16:56.700Z,43456
2019-05-12T11:18:09.586Z,43712
2019-05-12T11:19:20.980Z,45024
2019-05-12T11:20:34.246Z,45376
2019-05-12T11:21:46.736Z,46528
2019-05-12T11:22:58.965Z,48992
2019-05-12T11:24:11.106Z,50528
2019-05-12T11:25:21.717Z,51904
2019-05-12T11:26:31.907Z,51264
2019-05-12T11:27:43.680Z,50080
2019-05-12T11:28:55.700Z,53088
2019-05-12T11:30:06.738Z,54176
2019-05-12T11:31:18.410Z,53952
2019-05-12T11:32:38.806Z,56000
2019-05-12T11:33:50.786Z,55296
2019-05-12T11:35:03.848Z,53888
2019-05-12T11:36:16.002Z,55168
2019-05-12T11:37:29.065Z,56096
2019-05-12T11:38:41.412Z,58144
2019-05-12T11:39:55.759Z,57632
2019-05-12T11:41:09.882Z,56960
2019-05-12T11:42:28.650Z,56832
2019-05-12T11:43:41.231Z,57600
2019-05-12T11:44:51.263Z,57600
2019-05-12T11:46:00.966Z,58208
2019-05-12T11:47:14.606Z,61856
2019-05-12T11:48:33.970Z,60992
2019-05-12T11:49:48.978Z,64288
2019-05-12T11:51:03.729Z,61504
2019-05-12T11:52:26.421Z,64480
2019-05-12T11:53:39.888Z,62464
2019-05-12T11:54:58.353Z,64640
2019-05-12T11:56:13.833Z,66240
2019-05-12T11:57:34.067Z,64992
2019-05-12T11:58:56.640Z,66976
2019-05-12T12:00:10.250Z,19456
2019-05-12T12:01:21.151Z,66112
2019-05-12T12:02:36.660Z,63872
2019-05-12T12:03:48.797Z,59872
2019-05-12T12:04:59.201Z,57376
2019-05-12T12:06:09.173Z,61056
2019-05-12T12:07:20.840Z,63008
2019-05-12T12:08:44.016Z,67520
2019-05-12T12:10:03.672Z,72256
2019-05-12T12:11:30.198Z,73184
2019-05-12T12:12:53.935Z,77568
2019-05-12T12:14:14.245Z,77088
2019-05-12T12:15:34.408Z,77728
2019-05-12T12:16:57.145Z,78304
2019-05-12T12:18:20.436Z,76352
2019-05-12T12:19:49.345Z,78496
2019-05-12T12:21:14.182Z,77824
2019-05-12T12:22:33.927Z,72352
2019-05-12T12:23:55.929Z,79776
2019-05-12T12:25:19.667Z,81728
2019-05-12T12:26:39.836Z,82528
2019-05-12T12:27:53.684Z,84448
2019-05-12T12:29:05.795Z,86784
2019-05-12T12:30:28.117Z,84096
2019-05-12T12:31:45.801Z,84128
2019-05-12T12:33:06.630Z,85888
2019-05-12T12:34:33.141Z,83712
2019-05-12T12:35:44.472Z,84992
2019-05-12T12:36:59.277Z,84896
2019-05-12T12:38:13.841Z,86272
2019-05-12T12:39:26.164Z,87424
2019-05-12T12:40:36.274Z,88416
2019-05-12T12:42:06.839Z,83072
2019-05-12T12:43:18.099Z,88384
2019-05-12T12:44:28.777Z,86656
2019-05-12T12:45:48.099Z,87712
2019-05-12T12:47:06.762Z,55296
2019-05-12T12:48:25.350Z,69088
2019-05-12T12:49:49.981Z,77280
2019-05-12T12:51:01.252Z,79168
2019-05-12T12:52:13.635Z,75424
2019-05-12T12:53:27.586Z,71616
2019-05-12T12:54:38.079Z,77344
2019-05-12T12:55:53.540Z,89792
2019-05-12T12:57:13.583Z,67072
2019-05-12T12:58:36.882Z,87712
2019-05-12T12:59:57.739Z,89248
2019-05-12T13:01:13.932Z,92128
2019-05-12T13:02:44.949Z,71968
2019-05-12T13:04:04.520Z,75168
2019-05-12T13:05:16.445Z,77568
2019-05-12T13:06:28.580Z,86592
2019-05-12T13:07:40.303Z,92192
2019-05-12T13:08:54.097Z,92096
2019-05-12T13:10:16.792Z,83168
2019-05-12T13:11:40.342Z,94944
2019-05-12T13:13:04.062Z,91872
2019-05-12T13:14:16.011Z,95168
2019-05-12T13:15:28.242Z,93888
2019-05-12T13:16:39.189Z,94144
2019-05-12T13:17:51.773Z,95520
2019-05-12T13:19:16.995Z,96000
2019-05-12T13:20:28.707Z,96672
2019-05-12T13:21:48.961Z,99168
2019-05-12T13:23:00.642Z,97792
2019-05-12T13:24:11.595Z,100128
2019-05-12T13:25:21.791Z,99776
2019-05-12T13:26:31.500Z,101056
2019-05-12T13:27:44.728Z,101056
2019-05-12T13:29:00.211Z,101216
2019-05-12T13:30:26.549Z,101728
2019-05-12T13:31:56.222Z,98336
2019-05-12T13:33:14.651Z,99136
2019-05-12T13:34:34.582Z,100032
2019-05-12T13:35:55.528Z,103872
2019-05-12T13:37:15.330Z,102624
2019-05-12T13:38:41.382Z,95520
2019-05-12T13:40:04.809Z,100896
2019-05-12T13:41:22.950Z,96224
2019-05-12T13:42:40.595Z,100352
2019-05-12T13:44:03.908Z,95552
2019-05-12T13:45:18.445Z,102720
2019-05-12T13:46:30.758Z,69600
2019-05-12T13:47:48.803Z,107680
2019-05-12T13:49:05.646Z,99744
2019-05-12T13:50:30.959Z,97120
2019-05-12T13:51:48.200Z,92544
2019-05-12T13:53:10.107Z,97408
2019-05-12T13:54:30.455Z,85184
2019-05-12T13:55:54.251Z,84512
2019-05-12T13:57:16.087Z,81920
2019-05-12T13:58:34.361Z,80576
2019-05-12T14:00:10.307Z,89024
2019-05-12T14:01:39.986Z,31680
2019-05-12T14:03:13.933Z,37856
2019-05-12T14:04:30.331Z,26080
2019-05-12T14:05:55.148Z,73760
2019-05-12T14:07:09.188Z,80768
2019-05-12T14:08:26.251Z,107008
2019-05-12T14:09:36.771Z,100576
2019-05-12T14:11:04.451Z,43840
2019-05-12T14:12:16.020Z,101216
2019-05-12T14:13:26.972Z,97024
2019-05-12T14:14:38.890Z,84736
2019-05-12T14:15:53.448Z,86080
2019-05-12T14:17:08.795Z,85824
2019-05-12T14:18:25.686Z,56736
2019-05-12T14:19:40.656Z,85152
2019-05-12T14:21:01.307Z,84736
2019-05-12T14:22:25.756Z,90240
2019-05-12T14:23:36.751Z,89056
2019-05-12T14:24:53.923Z,100960
2019-05-12T14:26:10.269Z,95552
2019-05-12T14:27:29.667Z,99552
2019-05-12T14:28:50.704Z,104992
2019-05-12T14:30:14.326Z,79424
2019-05-12T14:31:56.455Z,94208
2019-05-12T14:33:12.528Z,107232
2019-05-12T14:34:28.472Z,110560
2019-05-12T14:35:50.562Z,102496
2019-05-12T14:37:17.508Z,110784
2019-05-12T14:38:36.277Z,104928
2019-05-12T14:39:53.762Z,102368
2019-05-12T14:41:16.949Z,104448
2019-05-12T14:42:44.159Z,103648
2019-05-12T14:44:05.904Z,100928
2019-05-12T14:45:19.285Z,111456
2019-05-12T14:46:49.199Z,104224
2019-05-12T14:48:13.648Z,114304
2019-05-12T14:49:35.689Z,114368
2019-05-12T14:50:46.601Z,105152
2019-05-12T14:51:58.405Z,106912
2019-05-12T14:53:10.882Z,103360
2019-05-12T14:54:23.853Z,112448
2019-05-12T14:55:36.182Z,91776
2019-05-12T14:57:00.523Z,20704
2019-05-12T14:58:26.035Z,20128
2019-05-12T14:59:44.287Z,31360
2019-05-12T15:01:03.689Z,85792
2019-05-12T15:02:19.329Z,105632
2019-05-12T15:03:36.716Z,110624
2019-05-12T15:04:50.563Z,112352
2019-05-12T15:06:03.759Z,101952
2019-05-12T15:07:17.789Z,108384
2019-05-12T15:08:43.585Z,99616
2019-05-12T15:10:11.208Z,67968
2019-05-12T15:11:23.693Z,81824
2019-05-12T15:12:35.974Z,104000
2019-05-12T15:13:46.157Z,85888
2019-05-12T15:14:56.786Z,105696
2019-05-12T15:16:07.386Z,106144
2019-05-12T15:17:29.362Z,102016
2019-05-12T15:18:50.887Z,105024
2019-05-12T15:20:10.774Z,99520
2019-05-12T15:21:33.942Z,107584
2019-05-12T15:22:57.444Z,93856
2019-05-12T15:24:15.113Z,106656
2019-05-12T15:25:35.287Z,96416
2019-05-12T15:26:50.384Z,100768
2019-05-12T15:28:08.742Z,99264
2019-05-12T15:29:28.332Z,100768
2019-05-12T15:30:38.580Z,103360
2019-05-12T15:32:03.711Z,101600
2019-05-12T15:33:16.236Z,101696
2019-05-12T15:34:28.376Z,100384
2019-05-12T15:35:39.230Z,96576
2019-05-12T15:37:06.640Z,98496
2019-05-12T15:38:23.874Z,95872
2019-05-12T15:39:36.061Z,99648
2019-05-12T15:40:48.157Z,92128
2019-05-12T15:42:05.852Z,92512
2019-05-12T15:43:18.543Z,97344
2019-05-12T15:44:43.284Z,93312
2019-05-12T15:46:02.608Z,101312
2019-05-12T15:47:12.371Z,100672
2019-05-12T15:48:30.545Z,98336
2019-05-12T15:49:43.993Z,93024
2019-05-12T15:50:59.280Z,95168
2019-05-12T15:52:16.549Z,92672
2019-05-12T15:53:33.356Z,98912
2019-05-12T15:54:56.445Z,86272
2019-05-12T15:56:28.020Z,24352
2019-05-12T15:57:40.364Z,88928
2019-05-12T15:58:55.709Z,96096
2019-05-12T16:00:09.824Z,91168
2019-05-12T16:01:26.702Z,91008
2019-05-12T16:02:38.765Z,85344
2019-05-12T16:03:50.748Z,85952
2019-05-12T16:05:04.106Z,89568
2019-05-12T16:06:19.504Z,85984
2019-05-12T16:07:43.594Z,91392
2019-05-12T16:08:55.884Z,83840
2019-05-12T16:10:08.973Z,86560
2019-05-12T16:11:21.209Z,84800
2019-05-12T16:12:36.689Z,78656
2019-05-12T16:14:03.880Z,80832
2019-05-12T16:15:22.270Z,81664
2019-05-12T16:16:46.766Z,78080
2019-05-12T16:18:05.523Z,79552
2019-05-12T16:19:19.271Z,82880
2019-05-12T16:20:33.315Z,74080
2019-05-12T16:21:45.496Z,80352
2019-05-12T16:22:55.688Z,74432
2019-05-12T16:24:18.011Z,77760
2019-05-12T16:25:38.825Z,70240
2019-05-12T16:26:58.168Z,44576
2019-05-12T16:28:23.551Z,73632
2019-05-12T16:29:38.805Z,79104
2019-05-12T16:30:58.775Z,76256
2019-05-12T16:32:38.971Z,41088
2019-05-12T16:34:10.874Z,73344
2019-05-12T16:35:34.620Z,67584
2019-05-12T16:36:57.231Z,67552
2019-05-12T16:38:20.759Z,74848
2019-05-12T16:39:46.837Z,71424
2019-05-12T16:40:58.767Z,69856
2019-05-12T16:42:16.584Z,63136
2019-05-12T16:43:29.223Z,67360
2019-05-12T16:44:43.968Z,70368
2019-05-12T16:45:56.206Z,68256
2019-05-12T16:47:06.761Z,14824
2019-05-12T16:48:42.014Z,67872
2019-05-12T16:49:58.193Z,66720
2019-05-12T16:51:23.850Z,28352
2019-05-12T16:52:47.603Z,58304
2019-05-12T16:53:58.850Z,64384
2019-05-12T16:55:10.976Z,67136
2019-05-12T16:56:30.442Z,50336
2019-05-12T16:57:55.865Z,53696
2019-05-12T16:59:21.655Z,57888
2019-05-12T17:00:39.551Z,60736
2019-05-12T17:02:05.386Z,51136
2019-05-12T17:03:20.777Z,51008
2019-05-12T17:04:33.216Z,60128
2019-05-12T17:05:43.354Z,62944